Aurora, IL

12:02 AM CST on February 21, 2017 (GMT -0600)
Fox Valley Farms, Inc | | Change Station
Active Advisory: Small Craft Advisory

Elev 732 ft 41.81 °N, 88.27 °W | Updated 23 seconds ago

Overcast
Overcast
57.3 °F
Feels Like 57.3 °F
N
4.0
Wind Variable Wind from WSW

Today
High -- | Low -- °F
--% Chance of Precip.
Yesterday
High -- | Low -- °F
Precip. -- in
Pressure 29.91 in
Visibility 10.0 miles
Clouds Scattered Clouds 4000 ft
Mostly Cloudy 7000 ft
Dew Point 46 °F
Humidity 68%
Rainfall 0.00 in
Snow Depth Not available.
6:39 AM 5:34 PM
Waning Crescent, 28% visible
METAR KDPA 210552Z 20006KT 10SM SCT040 BKN070 13/07 A2991 RMK AO2 SLP127 T01330072 10178 20133 402060044 55004
Pressure 29.91 in
Visibility 10.0 miles
Clouds Scattered Clouds 4000 ft
Mostly Cloudy 7000 ft
Dew Point 46 °F
Humidity 68%
Rainfall 0.00 in
Snow Depth Not available.
6:39 AM 5:34 PM
Waning Crescent, 28% visible
METAR KDPA 210552Z 20006KT 10SM SCT040 BKN070 13/07 A2991 RMK AO2 SLP127 T01330072 10178 20133 402060044 55004

Get Your Daily Forecast Email!

Thanks for signing up!

Be on the lookout for a verification email in your inbox.

You'll start receiving the daily forecast at 8 AM.

×

10-Day Weather Forecast

Almanac

Astronomy

Feb. 21, 2017 Rise Set
Actual Time
Civil Twilight
Nautical Twilight
Astronomical Twilight
Moon
Length of Visible Light
Length of Day
Tomorrow will be .
, % of the Moon is Illuminated

Today's Extremes

State Highs State Lows

Community

WunderPhotos

Upload Photos

1,962,540 photos uploaded!

WunderBlog® & News

Nearby

Air Quality

  Air Quality AQ Index Pollutant
Not available.

Snow Depth

Station Depth Elevation

Earthquake Activity

City Distance Mag. Time & Date
Minimum magnitude displayed is 2.5.

Coastal Water Temperatures

Place Temperature

Stations

Nearby Weather Stations

Station Location Temp. Windchill Dew Point Humidity Wind Precip. Elev Updated Type
                   

Watches & Warnings

Small Craft Advisory
Issued: 9:15 PM CST Feb. 20, 2017 – National Weather Service

... Small Craft Advisory remains in effect until 3 am CST
Tuesday...

* winds... to 25 kt.

* Significant waves... to 5 ft for IL... to 3 ft for Indiana.

* Occasional waves... to 7 ft for IL.

Precautionary/preparedness actions...

A Small Craft Advisory means that wind speeds of 21 to 33 knots
are expected to produce hazardous wave conditions to small craft.
Inexperienced mariners... especially those operating smaller
vessels should avoid navigating in these conditions.




Rodriguez